CheckWX is a tool to help pilots better visualize weather data.  It is not intended as a substitute for an official pre-flight weather briefing.

04:56:19 UTC

KLSV TAF
Nellis AFB Airport
Las Vegas, Nevada, USA
TAF AMD KLSV 230400Z 2304/2405 16010KT 9999 SKC QNH2967INS BECMG 2308/2309 VRB06KT 9999 SKC QNH2975INS BECMG 2316/2317 12010G18KT 9999 SKC QNH2984INS BECMG 2319/2320 14012G20KT 9999 SKC QNH2973INS TX40/2322Z TN25/2312Z

Aug-23@
04:00 UTC

Aug-23 @ 04:00 UTC

Aug-23@
08:00 UTC

Aug-23 @ 08:00 UTC

TAF AMD KLSV 230400Z 2304/2405 16010KT 9999 SKC QNH2967INS
Wind
  • 160° at 10 KTS
Cloud Levels
  • Clear skies

Aug-23@
08:00 UTC

Aug-23 @ 08:00 UTC

Aug-23@
16:00 UTC

Aug-23 @ 16:00 UTC

BECMG 2308/2309 VRB06KT 9999 SKC QNH2975INS

Becoming

Becoming Conditions expected by Fri, Aug 23, 2019 @ 09:00 UTC

Wind
  • Variable at 6 KTS
Cloud Levels
  • Clear skies

Aug-23@
16:00 UTC

Aug-23 @ 16:00 UTC

Aug-23@
19:00 UTC

Aug-23 @ 19:00 UTC

BECMG 2316/2317 12010G18KT 9999 SKC QNH2984INS

Becoming

Becoming Conditions expected by Fri, Aug 23, 2019 @ 17:00 UTC

Wind
  • 120° at 10 KTS
  • {Gusting to 18 KTS
Cloud Levels
  • Clear skies

Aug-23@
19:00 UTC

Aug-23 @ 19:00 UTC

Aug-24@
05:00 UTC

Aug-24 @ 05:00 UTC

BECMG 2319/2320 14012G20KT 9999 SKC QNH2973INS TX40/2322Z TN25/2312Z

Becoming

Becoming Conditions expected by Fri, Aug 23, 2019 @ 20:00 UTC

Wind
  • 140° at 12 KTS
  • {Gusting to 20 KTS
Cloud Levels
  • Clear skies